Time;durP1;ratioP1;P1;durP2;ratioP2;P2;SDS_P1;SDS_P2;PMS_P1;PMS_P2;Temp;Humidity;BMP_temperature;BMP_pressure;BME280_temperature;BME280_humidity;BME280_pressure;Samples;Min_cycle;Max_cycle;Signal;HPM_P1;HPM_P2
2023/09/23 00:01:05;;;;;;;3.53;2.33;;;14.10;72.20;;;;;;4798821;29;20693;-31
2023/09/23 00:03:36;;;;;;;7.43;1.97;;;14.10;72.20;;;;;;4797219;29;20232;-31
2023/09/23 00:06:08;;;;;;;6.93;2.40;;;14.10;72.30;;;;;;4798726;29;20692;-31
2023/09/23 00:08:41;;;;;;;6.13;2.40;;;14.10;72.30;;;;;;4798416;29;20220;-31
2023/09/23 00:11:08;;;;;;;4.70;2.23;;;14.10;72.30;;;;;;4797297;29;20211;-31
2023/09/23 00:13:35;;;;;;;8.50;2.30;;;14.10;72.40;;;;;;4811959;29;20265;-31
2023/09/23 00:16:16;;;;;;;4.93;2.27;;;14.00;72.30;;;;;;4782456;29;20288;-31
2023/09/23 00:18:47;;;;;;;11.27;2.70;;;14.00;72.30;;;;;;4812071;29;20295;-32
2023/09/23 00:21:16;;;;;;;6.50;2.50;;;14.00;72.30;;;;;;4799270;29;20650;-32
2023/09/23 00:23:46;;;;;;;4.30;2.20;;;14.00;72.40;;;;;;4812204;29;20255;-31
2023/09/23 00:26:17;;;;;;;4.57;1.90;;;14.00;72.30;;;;;;4798775;29;20209;-31
2023/09/23 00:28:46;;;;;;;5.80;2.40;;;14.00;72.40;;;;;;4801668;29;20205;-31
2023/09/23 00:31:16;;;;;;;6.80;2.03;;;14.00;72.40;;;;;;4801211;29;20209;-31
2023/09/23 00:33:48;;;;;;;7.47;2.47;;;14.00;72.40;;;;;;4802212;29;20571;-31
2023/09/23 00:36:24;;;;;;;8.43;2.50;;;14.00;72.40;;;;;;4815605;29;20237;-32
2023/09/23 00:38:51;;;;;;;7.73;2.00;;;14.00;72.40;;;;;;4815314;29;20217;-32
2023/09/23 00:41:19;;;;;;;8.07;2.10;;;14.00;72.40;;;;;;4815212;29;20919;-32
2023/09/23 00:43:48;;;;;;;6.03;2.13;;;14.00;72.40;;;;;;4801747;29;20337;-31
2023/09/23 00:46:22;;;;;;;6.57;1.77;;;13.90;72.50;;;;;;4802203;29;20300;-32
2023/09/23 00:48:50;;;;;;;6.10;2.07;;;14.00;72.50;;;;;;4801827;29;20212;-32
2023/09/23 00:51:21;;;;;;;8.93;2.27;;;13.90;72.40;;;;;;4801770;29;20287;-32
2023/09/23 00:53:52;;;;;;;4.67;1.80;;;13.90;72.40;;;;;;4801833;29;20217;-31
2023/09/23 00:56:23;;;;;;;6.67;1.90;;;13.90;72.50;;;;;;4801705;29;20297;-32
2023/09/23 00:58:50;;;;;;;4.43;2.10;;;13.90;72.50;;;;;;4799362;29;20288;-31
2023/09/23 01:01:18;;;;;;;7.13;1.97;;;13.90;72.50;;;;;;4799987;29;20201;-31
2023/09/23 01:03:45;;;;;;;6.60;1.73;;;13.90;72.50;;;;;;4799971;29;20232;-31
2023/09/23 01:06:16;;;;;;;5.47;1.63;;;13.90;72.50;;;;;;4801551;29;20224;-31
2023/09/23 01:08:45;;;;;;;4.93;2.20;;;13.90;72.50;;;;;;4801555;29;20230;-31
2023/09/23 01:11:18;;;;;;;6.90;2.00;;;13.90;72.50;;;;;;4801427;29;20607;-32
2023/09/23 01:13:50;;;;;;;5.10;1.80;;;13.90;72.50;;;;;;4801297;29;20221;-31
2023/09/23 01:16:18;;;;;;;5.30;1.53;;;13.80;72.60;;;;;;4801474;29;20717;-31
2023/09/23 01:18:45;;;;;;;4.53;1.40;;;13.80;72.40;;;;;;4800027;29;20623;-32
2023/09/23 01:21:13;;;;;;;4.40;1.63;;;13.80;72.50;;;;;;4799616;29;20225;-31
2023/09/23 01:23:46;;;;;;;7.00;2.10;;;13.80;72.50;;;;;;4799828;29;20509;-31
2023/09/23 01:26:13;;;;;;;7.50;1.70;;;13.80;72.50;;;;;;4801122;29;20213;-31
2023/09/23 01:28:43;;;;;;;8.40;1.93;;;13.80;72.60;;;;;;4801048;29;20301;-31
2023/09/23 01:31:14;;;;;;;6.07;2.17;;;13.80;72.60;;;;;;4799872;29;20614;-31
2023/09/23 01:33:41;;;;;;;6.50;1.87;;;13.70;72.50;;;;;;4801303;29;20209;-31
2023/09/23 01:36:14;;;;;;;4.93;1.70;;;13.70;72.60;;;;;;4799960;29;20209;-31
2023/09/23 01:38:41;;;;;;;6.87;2.17;;;13.70;72.60;;;;;;4800614;29;20231;-31
2023/09/23 01:41:08;;;;;;;5.60;1.87;;;13.70;72.70;;;;;;4799711;29;20225;-31
2023/09/23 01:43:37;;;;;;;7.00;1.80;;;13.70;72.60;;;;;;4800066;29;20361;-31
2023/09/23 01:46:06;;;;;;;5.50;2.20;;;13.70;72.70;;;;;;4801313;29;20692;-31
2023/09/23 01:48:38;;;;;;;4.37;1.60;;;13.70;72.60;;;;;;4801025;29;20213;-32
2023/09/23 01:51:10;;;;;;;6.87;1.43;;;13.70;72.70;;;;;;4799762;29;20300;-31
2023/09/23 01:53:37;;;;;;;4.57;1.70;;;13.70;72.70;;;;;;4799346;29;20209;-32
2023/09/23 01:56:06;;;;;;;4.90;1.80;;;13.70;72.70;;;;;;4799593;29;20228;-31
2023/09/23 01:58:36;;;;;;;3.87;1.70;;;13.60;72.60;;;;;;4799392;29;20240;-32
2023/09/23 02:01:06;;;;;;;9.30;1.87;;;13.60;72.70;;;;;;4799361;29;20831;-31
2023/09/23 02:03:33;;;;;;;7.20;2.00;;;13.60;72.80;;;;;;4799242;29;20239;-31
2023/09/23 02:06:06;;;;;;;3.97;1.53;;;13.60;72.70;;;;;;4784150;29;20205;-31
2023/09/23 02:08:33;;;;;;;7.07;2.10;;;13.60;72.70;;;;;;4799419;29;20209;-31
2023/09/23 02:11:02;;;;;;;4.87;1.83;;;13.60;72.70;;;;;;4799723;29;20603;-31
2023/09/23 02:13:30;;;;;;;8.70;1.90;;;13.60;72.80;;;;;;4799433;29;20209;-31
2023/09/23 02:15:58;;;;;;;6.07;1.93;;;13.60;72.90;;;;;;4799199;29;20594;-31
2023/09/23 02:18:26;;;;;;;5.87;2.30;;;13.60;72.90;;;;;;4800538;29;20217;-31
2023/09/23 02:20:56;;;;;;;6.23;2.50;;;13.60;72.90;;;;;;4800487;29;20213;-31
2023/09/23 02:23:25;;;;;;;5.93;2.10;;;13.60;72.90;;;;;;4784312;29;20225;-31
2023/09/23 02:25:52;;;;;;;7.27;2.10;;;13.60;72.90;;;;;;4798986;29;20209;-32
2023/09/23 02:28:20;;;;;;;5.17;2.30;;;13.50;72.80;;;;;;4800755;29;20225;-31
2023/09/23 02:30:47;;;;;;;7.83;2.50;;;13.50;72.90;;;;;;4800198;29;20706;-31
2023/09/23 02:33:20;;;;;;;6.83;1.83;;;13.50;72.90;;;;;;4798524;29;20241;-31
2023/09/23 02:35:50;;;;;;;5.97;2.33;;;13.50;72.90;;;;;;4800172;29;20648;-31
2023/09/23 02:38:18;;;;;;;9.23;2.13;;;13.50;73.00;;;;;;4798868;29;20304;-31
2023/09/23 02:40:47;;;;;;;5.13;1.90;;;13.50;73.00;;;;;;4800107;29;20216;-31
2023/09/23 02:43:14;;;;;;;7.23;2.10;;;13.50;73.00;;;;;;4798656;29;20332;-31
2023/09/23 02:45:44;;;;;;;5.73;3.13;;;13.50;73.00;;;;;;4798464;29;20241;-31
2023/09/23 02:48:13;;;;;;;9.90;2.20;;;13.50;73.10;;;;;;4799051;29;20209;-31
2023/09/23 02:50:46;;;;;;;8.17;2.10;;;13.50;73.10;;;;;;4797643;29;20204;-34
2023/09/23 02:53:15;;;;;;;9.47;2.10;;;13.50;73.10;;;;;;4798478;29;20205;-31
2023/09/23 02:55:51;;;;;;;5.30;2.17;;;13.50;73.00;;;;;;4799868;29;20587;-31
2023/09/23 02:58:19;;;;;;;4.67;1.90;;;13.50;73.00;;;;;;4799677;29;20216;-32
2023/09/23 03:00:57;;;;;;;7.33;1.80;;;13.50;73.00;;;;;;4783265;29;20235;-31
2023/09/23 03:03:24;;;;;;;7.70;2.07;;;13.50;73.00;;;;;;4799680;29;20229;-31
2023/09/23 03:05:57;;;;;;;8.00;2.30;;;13.50;73.00;;;;;;4799910;29;20688;-31
2023/09/23 03:08:30;;;;;;;4.93;2.17;;;13.40;73.00;;;;;;4798013;29;20209;-31
2023/09/23 03:11:02;;;;;;;5.50;2.10;;;13.40;73.00;;;;;;4799690;29;20299;-31
2023/09/23 03:13:37;;;;;;;6.60;1.93;;;13.40;73.00;;;;;;4798410;29;20228;-31
2023/09/23 03:16:08;;;;;;;5.80;2.40;;;13.40;73.00;;;;;;4799816;29;20229;-31
2023/09/23 03:18:54;;;;;;;8.80;2.33;;;13.40;73.10;;;;;;4799511;29;20213;-31
2023/09/23 03:21:22;;;;;;;6.80;2.43;;;13.40;73.00;;;;;;4799424;29;20296;-31
2023/09/23 03:23:49;;;;;;;12.40;2.60;;;13.40;73.10;;;;;;4798287;29;20232;-31
2023/09/23 03:26:19;;;;;;;6.83;2.53;;;13.40;73.10;;;;;;4797990;29;20697;-31
2023/09/23 03:28:47;;;;;;;10.63;2.80;;;13.40;73.10;;;;;;4797839;29;20269;-31
2023/09/23 03:31:14;;;;;;;5.07;2.67;;;13.40;73.10;;;;;;4799280;29;20221;-31
2023/09/23 03:33:44;;;;;;;8.20;2.13;;;13.30;73.10;;;;;;4798127;29;20213;-32
2023/09/23 03:36:16;;;;;;;10.30;2.47;;;13.40;73.20;;;;;;4797843;29;20201;-32
2023/09/23 03:38:46;;;;;;;7.33;2.50;;;13.30;73.10;;;;;;4799265;29;20224;-31
2023/09/23 03:41:13;;;;;;;6.70;2.30;;;13.30;73.10;;;;;;4797862;29;20236;-32
2023/09/23 03:43:43;;;;;;;9.77;2.37;;;13.30;73.10;;;;;;4798849;29;20263;-31
2023/09/23 03:46:12;;;;;;;6.27;2.47;;;13.30;73.20;;;;;;4782573;29;20613;-31
2023/09/23 03:48:40;;;;;;;7.13;2.10;;;13.30;73.20;;;;;;4783007;29;20225;-31
2023/09/23 03:51:09;;;;;;;7.27;2.50;;;13.30;73.20;;;;;;4797428;29;20292;-31
2023/09/23 03:53:40;;;;;;;7.97;2.53;;;13.30;73.10;;;;;;4799180;29;20591;-31
2023/09/23 03:56:07;;;;;;;7.13;2.40;;;13.30;73.20;;;;;;4799245;29;20256;-31
2023/09/23 03:58:34;;;;;;;5.87;2.00;;;13.30;73.20;;;;;;4797342;29;20417;-31
2023/09/23 04:01:13;;;;;;;7.40;2.43;;;13.20;73.10;;;;;;4799201;29;20319;-31
2023/09/23 04:03:45;;;;;;;5.53;2.30;;;13.20;73.20;;;;;;4798926;29;20285;-31
2023/09/23 04:06:13;;;;;;;6.37;2.40;;;13.20;73.30;;;;;;4799367;29;20572;-32
2023/09/23 04:08:43;;;;;;;7.17;2.67;;;13.20;73.30;;;;;;4798897;29;20263;-32
2023/09/23 04:11:15;;;;;;;6.83;2.47;;;13.20;73.20;;;;;;4798784;29;20774;-31
2023/09/23 04:13:44;;;;;;;6.07;2.63;;;13.20;73.30;;;;;;4798876;29;20213;-31
2023/09/23 04:16:15;;;;;;;8.17;3.00;;;13.20;73.30;;;;;;4797540;29;20201;-32
2023/09/23 04:18:51;;;;;;;6.97;2.50;;;13.20;73.20;;;;;;4797132;29;20239;-31
2023/09/23 04:21:21;;;;;;;7.53;2.53;;;13.20;73.30;;;;;;4798319;29;20225;-31
2023/09/23 04:23:52;;;;;;;6.00;2.40;;;13.20;73.30;;;;;;4798473;29;20600;-31
2023/09/23 04:26:24;;;;;;;6.93;2.70;;;13.20;73.30;;;;;;4798819;29;20208;-32
2023/09/23 04:28:52;;;;;;;7.63;2.80;;;13.20;73.30;;;;;;4798675;29;20296;-32
2023/09/23 04:31:24;;;;;;;7.37;2.33;;;13.20;73.40;;;;;;4798640;29;20228;-32
2023/09/23 04:33:53;;;;;;;5.03;2.40;;;13.20;73.30;;;;;;4797071;29;20209;-31
2023/09/23 04:36:25;;;;;;;6.03;2.40;;;13.10;74.10;;;;;;4799436;29;20209;-32
2023/09/23 04:38:55;;;;;;;5.33;2.47;;;13.10;73.30;;;;;;4798783;29;20253;-31
2023/09/23 04:41:24;;;;;;;6.73;2.37;;;13.10;73.30;;;;;;4798543;29;20260;-31
2023/09/23 04:43:51;;;;;;;7.73;2.30;;;13.10;73.40;;;;;;4798320;29;20255;-31
2023/09/23 04:46:19;;;;;;;7.73;2.60;;;13.10;73.30;;;;;;4796813;29;20257;-32
2023/09/23 04:48:49;;;;;;;7.37;3.00;;;13.10;73.40;;;;;;4796995;29;20297;-32
2023/09/23 04:51:17;;;;;;;5.63;2.50;;;13.10;73.40;;;;;;4796626;29;20237;-32
2023/09/23 04:53:44;;;;;;;4.87;2.50;;;13.10;73.40;;;;;;4796996;29;20225;-31
2023/09/23 04:56:17;;;;;;;7.37;3.30;;;13.10;73.40;;;;;;4798468;29;20313;-31
2023/09/23 04:58:44;;;;;;;9.30;2.97;;;13.10;73.40;;;;;;4797159;29;20220;-32
2023/09/23 05:01:18;;;;;;;6.30;2.60;;;13.10;73.40;;;;;;4797100;29;20221;-32
2023/09/23 05:03:49;;;;;;;6.87;3.53;;;13.10;73.40;;;;;;4797156;29;20220;-32
2023/09/23 05:06:19;;;;;;;8.27;3.33;;;13.10;73.40;;;;;;4798372;29;20248;-31
2023/09/23 05:08:46;;;;;;;7.10;2.60;;;13.00;73.40;;;;;;4798439;29;20269;-31
2023/09/23 05:11:18;;;;;;;8.17;3.37;;;13.00;73.40;;;;;;4796753;29;20205;-32
2023/09/23 05:13:48;;;;;;;11.03;3.83;;;13.00;73.40;;;;;;4800043;29;20228;-31
2023/09/23 05:16:17;;;;;;;5.50;2.63;;;13.00;73.40;;;;;;4801954;29;20413;-31
2023/09/23 05:18:45;;;;;;;5.77;2.60;;;13.00;73.40;;;;;;4785431;29;20217;-31
2023/09/23 05:21:13;;;;;;;11.50;3.47;;;13.00;73.40;;;;;;4800227;29;20262;-31
2023/09/23 05:23:44;;;;;;;5.10;2.80;;;13.00;73.40;;;;;;4801700;29;20747;-31
2023/09/23 05:26:12;;;;;;;7.07;2.57;;;13.00;73.50;;;;;;4801755;29;20339;-31
2023/09/23 05:28:42;;;;;;;8.33;2.73;;;13.00;73.50;;;;;;4785315;29;20272;-32
2023/09/23 05:31:09;;;;;;;5.70;2.67;;;13.00;73.50;;;;;;4799883;29;20216;-32
2023/09/23 05:33:43;;;;;;;8.73;2.80;;;13.00;73.50;;;;;;4801100;29;20273;-31
2023/09/23 05:36:14;;;;;;;8.73;2.67;;;13.00;73.50;;;;;;4799438;29;20221;-31
2023/09/23 05:38:43;;;;;;;5.47;2.33;;;12.90;73.50;;;;;;4799757;29;20278;-32
2023/09/23 05:41:14;;;;;;;5.50;2.60;;;12.90;73.50;;;;;;4785204;29;20640;-31
2023/09/23 05:43:41;;;;;;;4.67;2.60;;;12.90;73.50;;;;;;4799465;29;20772;-31
2023/09/23 05:46:12;;;;;;;5.77;2.37;;;12.90;73.60;;;;;;4800796;29;20335;-31
2023/09/23 05:48:39;;;;;;;6.60;2.70;;;12.90;73.50;;;;;;4799938;29;20209;-31
2023/09/23 05:51:07;;;;;;;12.63;2.70;;;12.90;73.60;;;;;;4801277;29;20683;-31
2023/09/23 05:53:36;;;;;;;7.37;2.93;;;12.90;73.60;;;;;;4801379;29;20209;-31
2023/09/23 05:56:06;;;;;;;8.93;3.43;;;12.90;73.60;;;;;;4800895;29;20804;-31
2023/09/23 05:58:33;;;;;;;6.87;2.70;;;12.90;73.60;;;;;;4799408;29;20320;-32
2023/09/23 06:01:00;;;;;;;6.97;2.80;;;12.90;73.60;;;;;;4799402;29;20220;-32
2023/09/23 06:03:28;;;;;;;9.63;3.37;;;12.90;73.60;;;;;;4800749;29;20209;-32
2023/09/23 06:05:55;;;;;;;7.50;3.30;;;12.90;73.70;;;;;;4799395;29;20327;-31
2023/09/23 06:08:22;;;;;;;7.83;3.10;;;12.90;73.60;;;;;;4800907;29;20692;-32
2023/09/23 06:10:51;;;;;;;4.77;2.93;;;12.90;73.70;;;;;;4799027;29;20213;-31
2023/09/23 06:13:21;;;;;;;6.67;3.13;;;12.90;73.70;;;;;;4799069;29;20209;-31
2023/09/23 06:15:49;;;;;;;8.07;3.23;;;12.90;73.70;;;;;;4798862;29;20784;-31
2023/09/23 06:18:16;;;;;;;7.97;2.83;;;12.90;73.70;;;;;;4800606;29;20736;-31
2023/09/23 06:20:48;;;;;;;10.33;3.60;;;12.90;73.80;;;;;;4800549;29;20220;-31
2023/09/23 06:23:17;;;;;;;11.83;2.60;;;12.90;73.80;;;;;;4798903;29;20515;-31
2023/09/23 06:25:52;;;;;;;8.20;2.67;;;13.00;73.90;;;;;;4798747;29;20237;-31
2023/09/23 06:28:20;;;;;;;7.37;3.10;;;13.00;74.00;;;;;;4799148;29;20204;-31
2023/09/23 06:30:47;;;;;;;7.20;3.30;;;13.00;74.00;;;;;;4800868;29;20284;-31
2023/09/23 06:33:15;;;;;;;7.83;3.40;;;13.00;74.00;;;;;;4800228;29;20209;-31
2023/09/23 06:35:42;;;;;;;11.60;2.80;;;13.00;74.00;;;;;;4800358;29;20292;-32
2023/09/23 06:38:09;;;;;;;7.53;3.00;;;13.00;74.00;;;;;;4800146;29;20209;-32
2023/09/23 06:40:39;;;;;;;7.20;3.17;;;13.00;74.00;;;;;;4799966;29;20215;-32
2023/09/23 06:43:07;;;;;;;9.73;3.20;;;13.10;74.00;;;;;;4799639;29;20253;-32
2023/09/23 06:45:36;;;;;;;8.77;2.97;;;13.10;74.00;;;;;;4798595;29;20241;-31
2023/09/23 06:48:05;;;;;;;7.33;2.80;;;13.10;74.00;;;;;;4800000;29;20216;-31
2023/09/23 06:50:37;;;;;;;5.83;2.83;;;13.10;74.10;;;;;;4799854;29;20240;-31
2023/09/23 06:53:05;;;;;;;6.07;2.47;;;13.10;74.10;;;;;;4799908;29;20454;-31
2023/09/23 06:55:32;;;;;;;8.20;3.40;;;13.20;74.20;;;;;;4783605;29;20300;-32
2023/09/23 06:57:59;;;;;;;7.20;2.83;;;13.20;74.20;;;;;;4799814;29;20299;-32
2023/09/23 07:00:27;;;;;;;4.93;2.80;;;13.20;74.20;;;;;;4799879;29;20663;-32
2023/09/23 07:03:03;;;;;;;6.50;2.50;;;13.20;74.10;;;;;;4798287;29;20217;-32
2023/09/23 07:05:30;;;;;;;7.87;3.70;;;13.30;74.30;;;;;;4798270;29;20238;-31
2023/09/23 07:07:58;;;;;;;8.30;3.53;;;13.30;74.30;;;;;;4800345;29;20249;-31
2023/09/23 07:10:25;;;;;;;6.93;3.17;;;13.30;74.30;;;;;;4798098;29;20205;-31
2023/09/23 07:12:52;;;;;;;8.30;2.83;;;13.30;74.30;;;;;;4799700;29;20216;-32
2023/09/23 07:15:19;;;;;;;7.07;3.37;;;13.30;74.40;;;;;;4798254;29;20262;-31
2023/09/23 07:17:51;;;;;;;6.73;2.90;;;13.40;74.50;;;;;;4798054;29;20759;-32
2023/09/23 07:20:21;;;;;;;6.83;3.10;;;13.40;74.50;;;;;;4799397;29;20347;-32
2023/09/23 07:22:48;;;;;;;9.37;3.30;;;13.50;74.60;;;;;;4782963;29;20212;-31
2023/09/23 07:25:15;;;;;;;7.37;3.20;;;13.50;74.60;;;;;;4799239;29;20240;-31
2023/09/23 07:27:44;;;;;;;10.33;3.30;;;13.50;74.60;;;;;;4799080;29;20205;-32
2023/09/23 07:30:12;;;;;;;7.43;2.97;;;13.60;74.70;;;;;;4799399;29;20289;-32
2023/09/23 07:32:41;;;;;;;8.57;3.60;;;13.60;74.70;;;;;;4799346;29;20212;-31
2023/09/23 07:35:11;;;;;;;9.10;3.47;;;13.70;74.70;;;;;;4797540;29;20213;-32
2023/09/23 07:37:38;;;;;;;9.37;3.50;;;13.70;74.70;;;;;;4797701;29;20644;-31
2023/09/23 07:40:08;;;;;;;7.03;3.60;;;13.70;74.70;;;;;;4797570;29;20217;-31
2023/09/23 07:42:38;;;;;;;9.17;3.37;;;13.70;74.70;;;;;;4799384;29;20608;-31
2023/09/23 07:45:06;;;;;;;10.17;3.27;;;13.80;74.80;;;;;;4799783;29;20225;-32
2023/09/23 07:47:33;;;;;;;8.07;3.43;;;13.80;74.80;;;;;;4797463;29;20630;-32
2023/09/23 07:50:00;;;;;;;7.93;3.80;;;13.90;74.90;;;;;;4798790;29;20217;-32
2023/09/23 07:52:27;;;;;;;12.07;4.00;;;13.90;75.00;;;;;;4798919;29;20224;-32
2023/09/23 07:54:57;;;;;;;9.63;4.13;;;13.90;74.80;;;;;;4797371;29;20205;-30
2023/09/23 07:57:24;;;;;;;8.27;3.63;;;14.00;75.00;;;;;;4797501;29;20209;-30
2023/09/23 07:59:54;;;;;;;6.57;3.50;;;14.00;75.10;;;;;;4798676;29;20225;-30
2023/09/23 08:02:24;;;;;;;7.07;3.47;;;14.10;75.00;;;;;;4798319;29;20205;-30
2023/09/23 08:04:56;;;;;;;7.87;3.40;;;14.10;75.10;;;;;;4798868;29;20720;-30
2023/09/23 08:07:23;;;;;;;9.07;3.70;;;14.10;75.00;;;;;;4799005;29;20212;-30
2023/09/23 08:09:50;;;;;;;7.73;3.60;;;14.20;75.00;;;;;;4797435;29;20608;-30
2023/09/23 08:12:17;;;;;;;7.33;3.27;;;14.30;75.20;;;;;;4797518;29;20583;-30
2023/09/23 08:14:45;;;;;;;7.83;3.37;;;14.30;75.20;;;;;;4797228;29;20215;-30
2023/09/23 08:17:14;;;;;;;8.53;3.57;;;14.30;75.20;;;;;;4797823;29;20693;-30
2023/09/23 08:19:42;;;;;;;9.00;3.10;;;14.40;75.20;;;;;;4797424;29;20629;-30
2023/09/23 08:22:09;;;;;;;5.57;3.60;;;14.40;75.10;;;;;;4797729;29;20405;-30
2023/09/23 08:24:39;;;;;;;8.07;3.47;;;14.40;75.20;;;;;;4782535;29;20296;-30
2023/09/23 08:27:06;;;;;;;10.67;3.93;;;14.50;75.20;;;;;;4782548;29;20244;-30
2023/09/23 08:29:34;;;;;;;5.67;3.43;;;14.60;76.00;;;;;;4799049;29;20197;-30
2023/09/23 08:32:01;;;;;;;6.30;3.27;;;14.60;76.10;;;;;;4798842;29;20320;-30
2023/09/23 08:34:28;;;;;;;11.03;3.60;;;14.60;75.30;;;;;;4797176;29;20205;-30
2023/09/23 08:36:56;;;;;;;7.87;3.50;;;14.70;75.20;;;;;;4796911;29;20209;-30
2023/09/23 08:39:25;;;;;;;6.80;3.40;;;14.70;75.20;;;;;;4782015;29;20642;-30
2023/09/23 08:41:53;;;;;;;10.57;3.83;;;14.70;75.20;;;;;;4796698;29;20212;-30
2023/09/23 08:44:22;;;;;;;9.23;4.13;;;14.80;75.30;;;;;;4796829;29;20244;-30
2023/09/23 08:46:56;;;;;;;9.13;3.80;;;14.80;75.30;;;;;;4796790;29;20236;-29
2023/09/23 08:49:28;;;;;;;6.37;3.60;;;14.80;75.30;;;;;;4799220;29;20584;-30
2023/09/23 08:51:55;;;;;;;12.30;3.83;;;14.80;75.30;;;;;;4800485;29;20760;-30
2023/09/23 08:54:28;;;;;;;7.67;3.50;;;14.90;75.30;;;;;;4801704;29;20209;-30
2023/09/23 08:56:58;;;;;;;6.73;3.40;;;14.90;75.40;;;;;;4802070;29;20201;-30
2023/09/23 08:59:26;;;;;;;8.23;2.90;;;14.90;75.20;;;;;;4800995;29;20205;-30
2023/09/23 09:01:56;;;;;;;6.27;3.60;;;15.00;75.30;;;;;;4785611;29;20758;-30
2023/09/23 09:04:24;;;;;;;6.13;3.20;;;15.00;75.20;;;;;;4800327;29;20212;-30
2023/09/23 09:06:53;;;;;;;7.23;2.83;;;15.00;75.10;;;;;;4800344;29;20301;-30
2023/09/23 09:09:23;;;;;;;9.43;2.93;;;15.00;75.10;;;;;;4801887;29;20208;-30
2023/09/23 09:11:54;;;;;;;5.97;2.60;;;15.00;75.00;;;;;;4800330;29;20245;-30
2023/09/23 09:14:29;;;;;;;4.40;3.03;;;15.00;75.00;;;;;;4800526;29;20206;-30
2023/09/23 09:16:59;;;;;;;17.20;3.30;;;15.00;75.00;;;;;;4801550;29;20224;-30
2023/09/23 09:19:28;;;;;;;8.30;2.80;;;15.10;75.10;;;;;;4801383;29;20304;-30
2023/09/23 09:21:57;;;;;;;9.47;3.10;;;15.10;75.10;;;;;;4800034;29;20257;-30
2023/09/23 09:24:29;;;;;;;7.57;2.73;;;15.10;75.10;;;;;;4801571;29;20283;-30
2023/09/23 09:26:56;;;;;;;6.63;2.97;;;15.10;75.10;;;;;;4801544;29;20248;-29
2023/09/23 09:29:28;;;;;;;6.07;2.50;;;15.10;75.20;;;;;;4785416;29;20288;-30
2023/09/23 09:32:00;;;;;;;7.23;2.63;;;15.10;75.10;;;;;;4799666;29;20300;-30
2023/09/23 09:34:34;;;;;;;10.20;2.57;;;15.10;74.90;;;;;;4801338;29;20215;-30
2023/09/23 09:37:04;;;;;;;5.83;2.13;;;15.10;74.90;;;;;;4801746;29;20651;-30
2023/09/23 09:39:40;;;;;;;5.37;1.80;;;15.10;75.00;;;;;;4799738;29;20515;-30
2023/09/23 09:42:11;;;;;;;8.23;2.03;;;15.10;75.00;;;;;;4801100;29;20692;-30
2023/09/23 09:44:42;;;;;;;9.20;2.63;;;15.20;75.10;;;;;;4799660;29;20252;-30
2023/09/23 09:47:10;;;;;;;7.00;1.70;;;15.20;75.30;;;;;;4799781;29;20686;-30
2023/09/23 09:49:43;;;;;;;7.97;2.10;;;15.20;75.00;;;;;;4785394;29;20217;-30
2023/09/23 09:52:17;;;;;;;4.97;1.97;;;15.20;75.10;;;;;;4800724;29;20261;-29
2023/09/23 09:54:44;;;;;;;4.00;1.70;;;15.20;75.00;;;;;;4799175;29;20308;-29
2023/09/23 09:57:16;;;;;;;5.83;1.80;;;15.20;75.10;;;;;;4799177;29;20712;-30
2023/09/23 09:59:48;;;;;;;5.87;1.80;;;15.30;75.30;;;;;;4784421;29;20232;-30
2023/09/23 10:02:16;;;;;;;6.33;1.73;;;15.30;75.30;;;;;;4801037;29;20219;-29
2023/09/23 10:04:49;;;;;;;6.17;1.40;;;15.30;75.30;;;;;;4799221;29;20220;-29
2023/09/23 10:07:18;;;;;;;9.43;1.60;;;15.40;75.30;;;;;;4800750;29;20224;-29
2023/09/23 10:09:58;;;;;;;8.20;1.90;;;15.40;75.40;;;;;;4799030;29;20261;-29
2023/09/23 10:12:31;;;;;;;5.43;1.73;;;15.40;75.30;;;;;;4800788;29;20201;-29
2023/09/23 10:15:01;;;;;;;5.90;1.70;;;15.50;75.40;;;;;;4800851;29;20273;-30
2023/09/23 10:17:31;;;;;;;4.50;1.47;;;15.50;75.40;;;;;;4800322;29;20227;-30
2023/09/23 10:20:08;;;;;;;4.70;1.60;;;15.60;75.20;;;;;;4784431;29;20217;-29
2023/09/23 10:22:35;;;;;;;5.60;1.70;;;15.60;75.20;;;;;;4798733;29;20212;-29
2023/09/23 10:25:11;;;;;;;5.87;1.77;;;15.60;75.10;;;;;;4798685;29;20213;-29
2023/09/23 10:27:39;;;;;;;4.77;1.60;;;15.60;75.10;;;;;;4800171;29;20675;-29
2023/09/23 10:30:07;;;;;;;5.97;1.93;;;15.70;75.20;;;;;;4799923;29;20209;-29
2023/09/23 10:32:34;;;;;;;5.83;1.60;;;15.70;75.10;;;;;;4783928;29;20209;-29
2023/09/23 10:35:07;;;;;;;7.13;1.87;;;15.70;75.10;;;;;;4799855;29;20627;-29
2023/09/23 10:37:35;;;;;;;6.83;1.73;;;15.70;75.00;;;;;;4800193;29;20213;-29
2023/09/23 10:40:13;;;;;;;5.17;1.73;;;15.70;75.10;;;;;;4798352;29;20205;-29
2023/09/23 10:42:46;;;;;;;7.30;1.70;;;15.80;75.20;;;;;;4797959;29;20300;-29
2023/09/23 10:45:16;;;;;;;8.20;1.70;;;15.80;75.30;;;;;;4798504;29;20307;-29
2023/09/23 10:47:44;;;;;;;3.93;1.40;;;15.80;75.30;;;;;;4799879;29;20277;-30
2023/09/23 10:50:15;;;;;;;5.53;1.57;;;15.80;75.10;;;;;;4799008;29;20641;-31
2023/09/23 10:52:43;;;;;;;6.90;1.40;;;15.90;75.30;;;;;;4799845;29;20201;-31
2023/09/23 10:55:13;;;;;;;4.90;1.67;;;15.90;75.10;;;;;;4800145;29;20843;-31
2023/09/23 10:57:43;;;;;;;6.63;1.40;;;15.90;75.10;;;;;;4798566;29;20232;-32
2023/09/23 11:00:23;;;;;;;5.10;1.47;;;15.90;75.10;;;;;;4798277;29;20256;-31
2023/09/23 11:02:52;;;;;;;4.03;1.40;;;15.90;75.10;;;;;;4798538;29;20205;-29
2023/09/23 11:05:24;;;;;;;7.33;1.33;;;16.00;75.00;;;;;;4799507;29;20217;-33
2023/09/23 11:07:56;;;;;;;7.25;1.42;;;16.00;75.10;;;;;;4799309;29;20252;-29
2023/09/23 11:10:23;;;;;;;6.03;1.10;;;16.00;75.20;;;;;;4799496;29;20325;-29
2023/09/23 11:12:54;;;;;;;5.83;1.30;;;16.10;75.00;;;;;;4797720;29;20567;-29
2023/09/23 11:15:22;;;;;;;6.93;1.50;;;16.10;75.00;;;;;;4783410;29;20818;-29
2023/09/23 11:17:53;;;;;;;6.90;1.83;;;16.10;74.90;;;;;;4800247;29;20229;-29
2023/09/23 11:20:31;;;;;;;6.27;1.37;;;16.20;75.10;;;;;;4797983;29;20224;-31
2023/09/23 11:23:05;;;;;;;5.67;1.40;;;16.20;75.20;;;;;;4799559;29;20288;-31
2023/09/23 11:25:38;;;;;;;6.87;1.60;;;16.20;75.10;;;;;;4798562;29;20221;-31
2023/09/23 11:28:05;;;;;;;10.27;1.80;;;16.30;75.30;;;;;;4798730;29;20227;-31
2023/09/23 11:30:32;;;;;;;7.30;1.77;;;16.40;75.20;;;;;;4799891;29;20882;-31
2023/09/23 11:33:02;;;;;;;5.63;1.30;;;16.40;75.10;;;;;;4798187;29;20645;-31
2023/09/23 11:35:29;;;;;;;7.07;1.50;;;16.40;75.10;;;;;;4799032;29;20290;-31
2023/09/23 11:37:56;;;;;;;6.03;1.40;;;16.40;74.90;;;;;;4797722;29;20273;-31
2023/09/23 11:40:31;;;;;;;7.80;1.57;;;16.50;75.00;;;;;;4799060;29;20257;-31
2023/09/23 11:43:01;;;;;;;7.33;1.20;;;16.50;75.00;;;;;;4797219;29;20329;-31
2023/09/23 11:45:29;;;;;;;6.77;1.37;;;16.50;74.90;;;;;;4782634;29;20221;-31
2023/09/23 11:47:57;;;;;;;6.60;1.50;;;16.50;74.90;;;;;;4797463;29;20325;-31
2023/09/23 11:50:24;;;;;;;7.00;1.50;;;16.60;75.00;;;;;;4782635;29;20213;-31
2023/09/23 11:52:54;;;;;;;5.00;1.50;;;16.60;75.00;;;;;;4798833;29;20708;-31
2023/09/23 11:55:25;;;;;;;4.23;1.37;;;16.70;75.00;;;;;;4782867;29;20383;-31
2023/09/23 11:57:57;;;;;;;5.23;1.47;;;16.70;75.00;;;;;;4799172;29;20292;-31
2023/09/23 12:00:25;;;;;;;3.47;1.30;;;16.70;75.00;;;;;;4798966;29;20268;-29
2023/09/23 12:02:56;;;;;;;5.90;1.40;;;16.80;75.10;;;;;;4797878;29;20305;-29
2023/09/23 12:05:29;;;;;;;9.93;1.60;;;16.80;75.10;;;;;;4797566;29;20220;-29
2023/09/23 12:08:01;;;;;;;3.50;1.33;;;16.90;75.20;;;;;;4783067;29;20233;-29
2023/09/23 12:10:29;;;;;;;6.73;1.40;;;16.90;75.00;;;;;;4798945;29;20209;-29
2023/09/23 12:13:06;;;;;;;7.47;1.30;;;16.90;75.00;;;;;;4797324;29;20232;-29
2023/09/23 12:15:34;;;;;;;4.40;1.10;;;17.00;75.10;;;;;;4783180;29;20678;-29
2023/09/23 12:18:02;;;;;;;4.93;1.30;;;17.00;74.90;;;;;;4797192;29;20304;-28
2023/09/23 12:20:32;;;;;;;4.83;1.70;;;17.00;74.70;;;;;;4797182;29;20204;-29
2023/09/23 12:23:00;;;;;;;4.43;1.77;;;17.10;74.90;;;;;;4800259;29;20228;-29
2023/09/23 12:25:32;;;;;;;4.25;1.35;;;17.10;74.70;;;;;;4800962;29;20228;-29
2023/09/23 12:27:59;;;;;;;4.20;1.13;;;17.10;74.50;;;;;;4800787;29;20327;-28
2023/09/23 12:30:29;;;;;;;5.93;1.27;;;17.10;74.40;;;;;;4800901;29;20212;-29
2023/09/23 12:32:58;;;;;;;2.55;1.20;;;17.10;74.40;;;;;;4786155;29;20232;-28
2023/09/23 12:35:28;;;;;;;4.40;1.17;;;17.10;74.30;;;;;;4802159;29;20282;-29
2023/09/23 12:37:57;;;;;;;5.97;1.10;;;17.10;74.30;;;;;;4801033;29;20289;-29
2023/09/23 12:40:24;;;;;;;5.93;1.10;;;17.10;74.40;;;;;;4802187;29;20673;-29
2023/09/23 12:42:52;;;;;;;3.30;1.20;;;17.10;74.30;;;;;;4800644;29;20663;-28
2023/09/23 12:45:19;;;;;;;4.45;1.30;;;17.10;74.00;;;;;;4802807;29;20303;-28
2023/09/23 12:47:46;;;;;;;6.53;1.07;;;17.10;74.00;;;;;;4801540;29;20225;-29
2023/09/23 12:50:28;;;;;;;6.27;1.30;;;17.10;74.10;;;;;;4800435;29;20493;-28
2023/09/23 12:52:55;;;;;;;3.20;1.10;;;17.10;74.30;;;;;;4785843;29;20211;-28
2023/09/23 12:55:23;;;;;;;5.93;1.20;;;17.10;74.10;;;;;;4800333;29;20232;-29
2023/09/23 12:57:52;;;;;;;2.57;1.10;;;17.10;74.10;;;;;;4801713;29;20212;-29